sensor_id;sensor_type;location;lat;lon;timestamp;P1;durP1;ratioP1;P2;durP2;ratioP2
68208;SDS011;55662;47.488;19.074;2022-07-05T00:02:42;6.12;;;2.60;;
68208;SDS011;55662;47.488;19.074;2022-07-05T00:22:46;5.97;;;2.33;;
68208;SDS011;55662;47.488;19.074;2022-07-05T00:42:49;7.03;;;2.60;;
68208;SDS011;55662;47.488;19.074;2022-07-05T01:02:53;3.50;;;2.47;;
68208;SDS011;55662;47.488;19.074;2022-07-05T01:22:56;4.80;;;2.50;;
68208;SDS011;55662;47.488;19.074;2022-07-05T01:43:02;4.77;;;2.37;;
68208;SDS011;55662;47.488;19.074;2022-07-05T02:03:06;3.47;;;2.30;;
68208;SDS011;55662;47.488;19.074;2022-07-05T02:23:10;3.62;;;2.80;;
68208;SDS011;55662;47.488;19.074;2022-07-05T02:43:13;3.17;;;2.58;;
68208;SDS011;55662;47.488;19.074;2022-07-05T03:03:17;4.13;;;1.93;;
68208;SDS011;55662;47.488;19.074;2022-07-05T03:23:21;4.40;;;2.70;;
68208;SDS011;55662;47.488;19.074;2022-07-05T03:43:25;4.05;;;2.65;;
68208;SDS011;55662;47.488;19.074;2022-07-05T04:03:29;3.30;;;2.70;;
68208;SDS011;55662;47.488;19.074;2022-07-05T04:23:33;4.33;;;2.43;;
68208;SDS011;55662;47.488;19.074;2022-07-05T04:43:40;5.95;;;3.00;;
68208;SDS011;55662;47.488;19.074;2022-07-05T05:03:44;4.32;;;2.78;;
68208;SDS011;55662;47.488;19.074;2022-07-05T05:23:48;5.13;;;3.60;;
68208;SDS011;55662;47.488;19.074;2022-07-05T05:43:51;19.60;;;3.50;;
68208;SDS011;55662;47.488;19.074;2022-07-05T06:03:55;6.07;;;2.80;;
68208;SDS011;55662;47.488;19.074;2022-07-05T06:23:58;11.57;;;3.65;;
68208;SDS011;55662;47.488;19.074;2022-07-05T06:44:01;5.03;;;2.70;;
68208;SDS011;55662;47.488;19.074;2022-07-05T07:04:24;5.87;;;2.07;;
68208;SDS011;55662;47.488;19.074;2022-07-05T07:24:36;5.65;;;1.95;;
68208;SDS011;55662;47.488;19.074;2022-07-05T07:44:39;4.70;;;1.52;;
68208;SDS011;55662;47.488;19.074;2022-07-05T08:04:43;4.23;;;1.87;;
68208;SDS011;55662;47.488;19.074;2022-07-05T08:24:47;5.18;;;1.83;;
68208;SDS011;55662;47.488;19.074;2022-07-05T08:44:51;7.78;;;2.80;;
68208;SDS011;55662;47.488;19.074;2022-07-05T09:04:55;9.90;;;5.22;;
68208;SDS011;55662;47.488;19.074;2022-07-05T09:25:08;6.77;;;3.27;;
68208;SDS011;55662;47.488;19.074;2022-07-05T09:45:22;4.97;;;3.05;;
68208;SDS011;55662;47.488;19.074;2022-07-05T10:05:27;4.25;;;3.00;;
68208;SDS011;55662;47.488;19.074;2022-07-05T10:25:32;8.37;;;2.60;;
68208;SDS011;55662;47.488;19.074;2022-07-05T10:45:38;7.23;;;3.07;;
68208;SDS011;55662;47.488;19.074;2022-07-05T11:05:44;6.45;;;3.97;;
68208;SDS011;55662;47.488;19.074;2022-07-05T11:25:57;6.78;;;1.70;;
68208;SDS011;55662;47.488;19.074;2022-07-05T11:46:00;7.43;;;1.60;;
68208;SDS011;55662;47.488;19.074;2022-07-05T12:06:14;20.45;;;3.40;;
68208;SDS011;55662;47.488;19.074;2022-07-05T12:26:23;5.50;;;2.72;;
68208;SDS011;55662;47.488;19.074;2022-07-05T13:06:50;3.30;;;1.47;;
68208;SDS011;55662;47.488;19.074;2022-07-05T13:26:57;3.40;;;1.80;;
68208;SDS011;55662;47.488;19.074;2022-07-05T13:47:00;4.32;;;2.10;;
68208;SDS011;55662;47.488;19.074;2022-07-05T14:07:04;3.73;;;2.07;;
68208;SDS011;55662;47.488;19.074;2022-07-05T14:27:07;6.10;;;2.90;;
68208;SDS011;55662;47.488;19.074;2022-07-05T14:47:11;4.12;;;2.80;;
68208;SDS011;55662;47.488;19.074;2022-07-05T15:07:15;5.60;;;3.30;;
68208;SDS011;55662;47.488;19.074;2022-07-05T15:27:18;3.43;;;2.67;;
68208;SDS011;55662;47.488;19.074;2022-07-05T15:47:22;4.28;;;2.53;;
68208;SDS011;55662;47.488;19.074;2022-07-05T16:07:25;5.65;;;3.00;;
68208;SDS011;55662;47.488;19.074;2022-07-05T16:27:29;3.57;;;2.13;;
68208;SDS011;55662;47.488;19.074;2022-07-05T16:47:33;4.15;;;2.33;;
68208;SDS011;55662;47.488;19.074;2022-07-05T17:07:39;6.68;;;3.30;;
68208;SDS011;55662;47.488;19.074;2022-07-05T17:27:43;4.47;;;2.22;;
68208;SDS011;55662;47.488;19.074;2022-07-05T17:47:46;4.53;;;2.77;;
68208;SDS011;55662;47.488;19.074;2022-07-05T18:07:49;6.95;;;3.22;;
68208;SDS011;55662;47.488;19.074;2022-07-05T18:27:55;3.95;;;2.62;;
68208;SDS011;55662;47.488;19.074;2022-07-05T18:47:58;5.60;;;2.40;;
68208;SDS011;55662;47.488;19.074;2022-07-05T19:08:02;5.35;;;2.17;;
68208;SDS011;55662;47.488;19.074;2022-07-05T19:28:27;3.50;;;2.15;;
68208;SDS011;55662;47.488;19.074;2022-07-05T19:48:30;4.37;;;2.20;;
68208;SDS011;55662;47.488;19.074;2022-07-05T20:08:33;3.87;;;2.70;;
68208;SDS011;55662;47.488;19.074;2022-07-05T20:28:37;4.82;;;3.20;;
68208;SDS011;55662;47.488;19.074;2022-07-05T20:48:40;5.03;;;3.80;;
68208;SDS011;55662;47.488;19.074;2022-07-05T21:08:43;5.03;;;3.23;;
68208;SDS011;55662;47.488;19.074;2022-07-05T21:28:47;5.15;;;3.70;;
68208;SDS011;55662;47.488;19.074;2022-07-05T21:48:51;4.60;;;3.72;;
68208;SDS011;55662;47.488;19.074;2022-07-05T22:08:56;5.33;;;3.50;;
68208;SDS011;55662;47.488;19.074;2022-07-05T22:28:59;6.25;;;4.47;;
68208;SDS011;55662;47.488;19.074;2022-07-05T22:49:04;5.18;;;4.20;;
68208;SDS011;55662;47.488;19.074;2022-07-05T23:09:07;6.43;;;4.77;;
68208;SDS011;55662;47.488;19.074;2022-07-05T23:29:11;7.45;;;4.57;;
68208;SDS011;55662;47.488;19.074;2022-07-05T23:49:14;7.00;;;4.97;;
